Strona główna
METAR-TAF:

METAR-TAF

Lotnisko :

Port lotniczy Cañal Bajo Carlos Hott Siebert

Osorno, Chile

Szerokość geograficzna: 40-36-41S, Długość geograficzna: 73-03-38W, wysokość: 57 m

Aktualna obserwacja pogody

Raport powstał 46 minut temu, godzina 14:00 UTC
Wiatr 8 kt od północno-północny wschód
Temperatura 8°C
Wilgotność 93%
Ciśnienie 1004 hPa
Widzialność 10 km lub więcej
Rozproszone chmury na wysokości 2500 ft
Przerywane chmury na wysokości 3500 ft

METAR: SCJO 211400Z 03008KT 9999 SCT025 BKN035 08/07 Q1004

czas: 10:46 (14:46 UTC)

Prognoza

Raport powstał 3 godziny i 45 minut temu, godzina 11:01 UTC
Prognoza ważna od 21 godzina 12 UTC do 21 godzina 24 UTC
Wiatr 10 kt od północno-północny wschód
Widzialność 10 km lub więcej
Przerywane chmury na wysokości 3500 ft
Przejściowo
od 21 godzina 16 UTC do 21 godzina 20 UTC
Rozproszone chmury na wysokości 2000 ft
Przerywane chmury na wysokości 3500 ft
słaby przelotny opad deszczu,

TAF: SCJO 211101Z 2112/2124 02010KT 9999 BKN035 TN08/2112Z TX11/2118Z TEMPO 2116/2120 -SHRA SCT020 BKN035

Obserwacja i prognoza pogody dla ponad 4000 lotnisk (raport METAR i TAF).

Dostępne stacje oznaczono żółtymi i czerwonymi punktami na mapie.

Najedź kursorem aby zobaczyć nazwę stacji.

Kliknij aby zobaczyć obserwacje i prognozy pogody.

Aby zmienić mapę: kliknij na zielony przycisk z czarnym krzyżykiem, aby powiększyć; na zielony przycisk z myślnikiem, aby pomniejszyć; na zielone strzałki, aby przejść do map sąsiednich.


METAR-TAF: